createdAt,value
2018-06-05T00:01:06.136Z,0
2018-06-05T00:01:51.488Z,0
2018-06-05T00:02:51.498Z,0
2018-06-05T00:04:51.552Z,0
2018-06-05T00:05:51.352Z,0
2018-06-05T00:06:51.355Z,0
2018-06-05T00:08:06.035Z,0
2018-06-05T00:08:51.676Z,0
2018-06-05T00:09:51.721Z,0
2018-06-05T00:10:51.442Z,0
2018-06-05T00:11:51.759Z,0
2018-06-05T00:13:51.786Z,0
2018-06-05T00:15:06.465Z,0
2018-06-05T00:15:51.858Z,0
2018-06-05T00:17:06.532Z,0
2018-06-05T00:18:06.272Z,0
2018-06-05T00:18:51.670Z,0
2018-06-05T00:19:51.914Z,0
2018-06-05T00:21:06.365Z,0
2018-06-05T00:21:51.450Z,0
2018-06-05T00:22:52.024Z,0
2018-06-05T00:23:52.009Z,0
2018-06-05T00:24:52.063Z,0
2018-06-05T00:26:52.167Z,0
2018-06-05T00:27:51.888Z,0
2018-06-05T00:28:51.884Z,0
2018-06-05T00:30:06.845Z,0
2018-06-05T00:30:52.180Z,0
2018-06-05T00:32:06.870Z,0
2018-06-05T00:32:52.258Z,0
2018-06-05T00:33:52.280Z,0
2018-06-05T00:35:06.936Z,0
2018-06-05T00:36:06.730Z,0
2018-06-05T00:36:52.322Z,0
2018-06-05T00:37:52.394Z,0
2018-06-05T00:38:52.402Z,0
2018-06-05T00:40:52.448Z,0
2018-06-05T00:41:52.444Z,0
2018-06-05T00:42:52.511Z,0
2018-06-05T00:43:52.240Z,0
2018-06-05T00:44:52.297Z,0
2018-06-05T00:45:52.035Z,0
2018-06-05T00:46:52.346Z,0
2018-06-05T00:49:52.681Z,0
2018-06-05T00:51:07.320Z,0
2018-06-05T00:51:52.471Z,0
2018-06-05T00:52:52.737Z,0
2018-06-05T00:54:52.773Z,0
2018-06-05T00:56:07.184Z,0
2018-06-05T00:56:52.851Z,0
2018-06-05T00:58:52.951Z,0
2018-06-05T00:59:52.904Z,0
2018-06-05T01:00:52.936Z,0
2018-06-05T01:01:52.672Z,0
2018-06-05T01:02:52.474Z,0
2018-06-05T01:03:52.205Z,0
2018-06-05T01:05:53.022Z,0
2018-06-05T01:06:53.081Z,0
2018-06-05T01:07:52.811Z,0
2018-06-05T01:08:53.178Z,0
2018-06-05T01:09:53.151Z,0
2018-06-05T01:11:07.826Z,0
2018-06-05T01:12:22.506Z,0
2018-06-05T01:12:53.189Z,0
2018-06-05T01:13:52.997Z,0
2018-06-05T01:14:53.244Z,0
2018-06-05T01:16:07.956Z,0
2018-06-05T01:16:53.328Z,0
2018-06-05T01:17:53.330Z,0
2018-06-05T01:19:08.023Z,0
2018-06-05T01:19:53.358Z,0
2018-06-05T01:20:53.532Z,0
2018-06-05T01:21:53.410Z,0
2018-06-05T01:22:53.472Z,0
2018-06-05T01:23:53.213Z,0
2018-06-05T01:24:53.529Z,0
2018-06-05T01:25:53.498Z,0
2018-06-05T01:26:53.543Z,0
2018-06-05T01:29:07.983Z,0
2018-06-05T01:29:53.627Z,0
2018-06-05T01:30:53.648Z,0
2018-06-05T01:31:53.640Z,0
2018-06-05T01:32:53.708Z,0
2018-06-05T01:34:53.719Z,0
2018-06-05T01:35:53.766Z,0
2018-06-05T01:36:53.761Z,0
2018-06-05T01:38:08.482Z,0
2018-06-05T01:38:53.570Z,0
2018-06-05T01:41:53.897Z,0
2018-06-05T01:43:08.337Z,0
2018-06-05T01:44:08.599Z,0
2018-06-05T01:44:53.971Z,0
2018-06-05T01:45:54.002Z,0
2018-06-05T01:46:54.032Z,0
2018-06-05T01:47:54.069Z,0
2018-06-05T01:49:54.114Z,0
2018-06-05T01:50:53.583Z,0
2018-06-05T01:51:58.853Z,0
2018-06-05T01:52:53.896Z,0
2018-06-05T01:53:54.214Z,0
2018-06-05T01:55:08.625Z,0
2018-06-05T01:55:53.965Z,0
2018-06-05T01:57:53.769Z,0
2018-06-05T01:58:54.309Z,0
2018-06-05T01:59:54.361Z,0
2018-06-05T02:00:54.080Z,4
2018-06-05T02:01:54.380Z,4
2018-06-05T02:02:54.399Z,0
2018-06-05T02:03:53.929Z,0
2018-06-05T02:04:54.481Z,0
2018-06-05T02:05:54.479Z,4
2018-06-05T02:06:54.491Z,4
2018-06-05T02:07:54.246Z,4
2018-06-05T02:09:09.220Z,0
2018-06-05T02:09:54.558Z,4
2018-06-05T02:10:54.607Z,4
2018-06-05T02:11:54.631Z,4
2018-06-05T02:12:54.370Z,8
2018-06-05T02:13:54.430Z,4
2018-06-05T02:15:09.360Z,8
2018-06-05T02:15:54.729Z,4
2018-06-05T02:16:54.745Z,8
2018-06-05T02:17:54.738Z,8
2018-06-05T02:18:54.811Z,8
2018-06-05T02:19:54.290Z,8
2018-06-05T02:20:54.858Z,12
2018-06-05T02:21:54.847Z,12
2018-06-05T02:23:09.555Z,12
2018-06-05T02:23:54.682Z,16
2018-06-05T02:24:54.521Z,16
2018-06-05T02:26:09.351Z,20
2018-06-05T02:26:54.978Z,20
2018-06-05T02:27:54.732Z,20
2018-06-05T02:28:55.053Z,24
2018-06-05T02:29:54.787Z,24
2018-06-05T02:31:09.755Z,28
2018-06-05T02:31:54.845Z,28
2018-06-05T02:32:54.884Z,28
2018-06-05T02:33:54.866Z,32
2018-06-05T02:34:54.916Z,36
2018-06-05T02:36:09.595Z,36
2018-06-05T02:36:55.236Z,40
2018-06-05T02:38:09.919Z,44
2018-06-05T02:38:54.738Z,48
2018-06-05T02:39:55.047Z,48
2018-06-05T02:40:55.293Z,56
2018-06-05T02:41:55.349Z,56
2018-06-05T02:42:55.343Z,64
2018-06-05T02:44:09.794Z,72
2018-06-05T02:45:55.417Z,80
2018-06-05T02:47:10.135Z,88
2018-06-05T02:49:10.144Z,100
2018-06-05T02:49:55.550Z,108
2018-06-05T02:50:55.557Z,120
2018-06-05T02:51:55.566Z,128
2018-06-05T02:52:55.622Z,136
2018-06-05T02:53:55.350Z,144
2018-06-05T02:54:55.147Z,156
2018-06-05T02:55:55.676Z,164
2018-06-05T02:56:55.717Z,172
2018-06-05T02:57:55.694Z,184
2018-06-05T02:58:55.743Z,200
2018-06-05T02:59:55.761Z,208
2018-06-05T03:00:55.823Z,220
2018-06-05T03:01:55.839Z,232
2018-06-05T03:03:10.483Z,248
2018-06-05T03:03:55.609Z,256
2018-06-05T03:04:55.860Z,264
2018-06-05T03:05:55.938Z,276
2018-06-05T03:06:55.949Z,284
2018-06-05T03:07:55.987Z,288
2018-06-05T03:08:55.454Z,284
2018-06-05T03:09:56.028Z,284
2018-06-05T03:10:56.004Z,292
2018-06-05T03:11:56.049Z,304
2018-06-05T03:12:56.069Z,312
2018-06-05T03:14:10.774Z,328
2018-06-05T03:14:56.155Z,328
2018-06-05T03:15:55.877Z,336
2018-06-05T03:18:25.499Z,388
2018-06-05T03:18:55.992Z,404
2018-06-05T03:19:55.979Z,408
2018-06-05T03:20:56.261Z,412
2018-06-05T03:22:10.929Z,400
2018-06-05T03:22:56.082Z,400
2018-06-05T03:24:56.121Z,444
2018-06-05T03:25:56.127Z,468
2018-06-05T03:26:56.417Z,496
2018-06-05T03:28:11.072Z,540
2018-06-05T03:28:56.433Z,556
2018-06-05T03:29:56.245Z,564
2018-06-05T03:30:56.502Z,572
2018-06-05T03:31:56.552Z,592
2018-06-05T03:32:56.542Z,628
2018-06-05T03:33:56.598Z,656
2018-06-05T03:34:56.321Z,660
2018-06-05T03:36:11.268Z,688
2018-06-05T03:37:56.665Z,740
2018-06-05T03:38:56.455Z,760
2018-06-05T03:40:11.097Z,792
2018-06-05T03:40:56.618Z,808
2018-06-05T03:41:55.970Z,832
2018-06-05T03:42:56.786Z,856
2018-06-05T03:43:56.807Z,876
2018-06-05T03:44:56.867Z,932
2018-06-05T03:46:11.496Z,1032
2018-06-05T03:47:56.889Z,1156
2018-06-05T03:48:56.950Z,1252
2018-06-05T03:50:11.350Z,1336
2018-06-05T03:50:56.733Z,1356
2018-06-05T03:51:56.724Z,1324
2018-06-05T03:52:57.022Z,1208
2018-06-05T03:53:57.060Z,1096
2018-06-05T03:55:11.459Z,996
2018-06-05T03:55:56.861Z,948
2018-06-05T03:56:56.866Z,900
2018-06-05T03:57:57.172Z,848
2018-06-05T03:58:57.161Z,816
2018-06-05T03:59:57.208Z,792
2018-06-05T04:00:57.230Z,780
2018-06-05T04:01:57.217Z,772
2018-06-05T04:02:57.247Z,760
2018-06-05T04:03:57.031Z,748
2018-06-05T04:04:57.319Z,772
2018-06-05T04:06:12.009Z,796
2018-06-05T04:06:56.827Z,784
2018-06-05T04:08:57.129Z,788
2018-06-05T04:10:11.819Z,844
2018-06-05T04:10:57.207Z,852
2018-06-05T04:12:11.878Z,864
2018-06-05T04:12:57.500Z,820
2018-06-05T04:13:57.550Z,752
2018-06-05T04:15:57.614Z,684
2018-06-05T04:16:57.346Z,656
2018-06-05T04:17:57.374Z,640
2018-06-05T04:18:57.633Z,656
2018-06-05T04:19:57.399Z,672
2018-06-05T04:20:57.436Z,676
2018-06-05T04:22:27.025Z,700
2018-06-05T04:22:57.763Z,704
2018-06-05T04:24:12.166Z,732
2018-06-05T04:24:57.542Z,752
2018-06-05T04:25:57.790Z,764
2018-06-05T04:26:57.823Z,772
2018-06-05T04:27:57.882Z,800
2018-06-05T04:28:57.882Z,832
2018-06-05T04:29:57.930Z,860
2018-06-05T04:31:12.571Z,912
2018-06-05T04:32:12.625Z,940
2018-06-05T04:32:57.958Z,968
2018-06-05T04:33:57.725Z,1008
2018-06-05T04:34:58.031Z,1064
2018-06-05T04:35:58.062Z,1028
2018-06-05T04:36:58.116Z,1000
2018-06-05T04:38:27.402Z,1028
2018-06-05T04:38:58.160Z,1044
2018-06-05T04:39:58.232Z,1064
2018-06-05T04:40:58.176Z,1056
2018-06-05T04:41:58.212Z,1096
2018-06-05T04:42:57.942Z,1156
2018-06-05T04:44:12.878Z,1184
2018-06-05T04:44:58.288Z,1160
2018-06-05T04:46:58.338Z,1128
2018-06-05T04:48:58.364Z,1276
2018-06-05T04:50:13.041Z,1332
2018-06-05T04:50:58.386Z,1360
2018-06-05T04:51:58.196Z,1380
2018-06-05T04:53:12.896Z,1492
2018-06-05T04:53:58.506Z,1512
2018-06-05T04:54:58.512Z,1552
2018-06-05T04:55:58.020Z,1580
2018-06-05T04:56:58.529Z,1616
2018-06-05T04:57:58.555Z,1700
2018-06-05T04:59:13.011Z,1788
2018-06-05T04:59:58.621Z,1856
2018-06-05T05:01:58.666Z,1960
2018-06-05T05:02:58.457Z,2012
2018-06-05T05:03:58.701Z,2088
2018-06-05T05:04:58.723Z,2120
2018-06-05T05:05:58.522Z,2052
2018-06-05T05:06:58.806Z,1988
2018-06-05T05:07:58.791Z,2004
2018-06-05T05:08:58.864Z,2004
2018-06-05T05:09:58.607Z,2060
2018-06-05T05:10:58.650Z,2244
2018-06-05T05:12:58.956Z,2340
2018-06-05T05:13:58.934Z,2352
2018-06-05T05:15:13.624Z,2296
2018-06-05T05:15:59.011Z,2312
2018-06-05T05:16:59.045Z,2296
2018-06-05T05:18:13.725Z,2288
2018-06-05T05:18:59.072Z,2300
2018-06-05T05:19:59.222Z,2344
2018-06-05T05:20:58.591Z,2276
2018-06-05T05:21:59.154Z,2232
2018-06-05T05:22:58.910Z,2224
2018-06-05T05:25:13.894Z,2288
2018-06-05T05:25:59.223Z,2292
2018-06-05T05:26:59.286Z,2352
2018-06-05T05:27:59.011Z,2308
2018-06-05T05:28:58.809Z,2276
2018-06-05T05:30:58.942Z,2232
2018-06-05T05:31:59.412Z,2260
2018-06-05T05:33:59.443Z,2208
2018-06-05T05:34:59.472Z,2164
2018-06-05T05:35:59.528Z,2136
2018-06-05T05:37:14.182Z,2148
2018-06-05T05:37:59.252Z,2152
2018-06-05T05:38:59.541Z,2160
2018-06-05T05:39:59.585Z,2180
2018-06-05T05:41:14.013Z,2204
2018-06-05T05:41:59.392Z,2248
2018-06-05T05:42:59.373Z,2332
2018-06-05T05:43:59.697Z,2428
2018-06-05T05:44:59.687Z,2468
2018-06-05T05:45:59.734Z,2520
2018-06-05T05:46:59.735Z,2528
2018-06-05T05:47:59.543Z,2572
2018-06-05T05:50:14.475Z,2628
2018-06-05T05:50:59.849Z,2640
2018-06-05T05:51:59.847Z,2716
2018-06-05T05:52:59.909Z,2816
2018-06-05T05:55:00.053Z,3096
2018-06-05T05:55:59.986Z,3360
2018-06-05T05:57:14.633Z,3404
2018-06-05T05:59:00.024Z,3404
2018-06-05T05:59:59.817Z,3500
2018-06-05T06:01:00.064Z,3432
2018-06-05T06:02:00.133Z,3320
2018-06-05T06:03:00.128Z,3220
2018-06-05T06:03:59.892Z,3124
2018-06-05T06:05:00.225Z,3100
2018-06-05T06:06:00.232Z,3096
2018-06-05T06:07:14.873Z,3096
2018-06-05T06:08:00.012Z,3088
2018-06-05T06:09:00.357Z,2984
2018-06-05T06:09:59.792Z,2940
2018-06-05T06:11:00.632Z,2980
2018-06-05T06:12:00.113Z,3040
2018-06-05T06:13:15.045Z,3092
2018-06-05T06:14:00.405Z,3028
2018-06-05T06:15:14.560Z,2928
2018-06-05T06:16:00.175Z,2880
2018-06-05T06:17:00.231Z,2920
2018-06-05T06:17:59.971Z,2952
2018-06-05T06:19:00.543Z,2940
2018-06-05T06:20:14.960Z,2876
2018-06-05T06:21:00.556Z,2792
2018-06-05T06:23:15.258Z,2660
2018-06-05T06:24:00.624Z,2608
2018-06-05T06:25:15.335Z,2564
2018-06-05T06:26:15.387Z,2568
2018-06-05T06:27:00.604Z,2576
2018-06-05T06:29:00.765Z,2660
2018-06-05T06:30:00.783Z,2732
2018-06-05T06:31:00.572Z,2872
2018-06-05T06:32:00.562Z,2900
2018-06-05T06:34:00.602Z,2816
2018-06-05T06:35:00.920Z,2828
2018-06-05T06:36:00.653Z,2872
2018-06-05T06:37:01.031Z,2976
2018-06-05T06:38:00.988Z,3116
2018-06-05T06:39:01.028Z,3148
2018-06-05T06:40:00.753Z,3132
2018-06-05T06:41:01.037Z,3216
2018-06-05T06:42:01.095Z,3308
2018-06-05T06:43:01.114Z,3412
2018-06-05T06:44:01.154Z,3608
2018-06-05T06:45:00.874Z,3568
2018-06-05T06:46:00.930Z,3440
2018-06-05T06:47:01.177Z,3336
2018-06-05T06:48:15.624Z,3300
2018-06-05T06:49:01.263Z,3308
2018-06-05T06:50:01.042Z,3276
2018-06-05T06:51:01.054Z,3228
2018-06-05T06:53:01.349Z,3196
2018-06-05T06:54:01.104Z,3196
2018-06-05T06:55:01.156Z,3252
2018-06-05T06:56:01.408Z,3308
2018-06-05T06:57:00.925Z,3376
2018-06-05T06:58:00.949Z,3440
2018-06-05T06:59:16.230Z,3480
2018-06-05T07:00:15.925Z,3496
2018-06-05T07:01:01.611Z,3492
2018-06-05T07:02:16.201Z,3560
2018-06-05T07:03:01.601Z,3576
2018-06-05T07:04:01.603Z,3548
2018-06-05T07:05:01.694Z,3484
2018-06-05T07:06:01.646Z,3512
2018-06-05T07:07:01.705Z,3588
2018-06-05T07:08:01.450Z,3684
2018-06-05T07:09:01.491Z,3780
2018-06-05T07:10:01.747Z,3908
2018-06-05T07:11:01.506Z,4092
2018-06-05T07:12:01.811Z,4428
2018-06-05T07:13:01.838Z,4716
2018-06-05T07:15:01.868Z,5172
2018-06-05T07:16:16.573Z,5204
2018-06-05T07:17:01.644Z,5292
2018-06-05T07:18:01.943Z,5444
2018-06-05T07:19:01.965Z,5664
2018-06-05T07:20:02.057Z,5988
2018-06-05T07:21:02.052Z,6188
2018-06-05T07:22:02.044Z,6340
2018-06-05T07:23:02.072Z,6180
2018-06-05T07:24:02.280Z,6052
2018-06-05T07:25:01.846Z,5932
2018-06-05T07:26:02.154Z,5752
2018-06-05T07:27:01.889Z,5748
2018-06-05T07:28:02.224Z,5980
2018-06-05T07:29:01.944Z,6236
2018-06-05T07:30:02.007Z,6176
2018-06-05T07:31:02.258Z,5980
2018-06-05T07:32:31.615Z,5812
2018-06-05T07:33:02.314Z,5760
2018-06-05T07:34:02.321Z,5596
2018-06-05T07:35:01.861Z,5480
2018-06-05T07:36:02.124Z,5336
2018-06-05T07:37:02.405Z,5284
2018-06-05T07:38:02.463Z,5232
2018-06-05T07:39:02.189Z,5176
2018-06-05T07:40:02.513Z,5140
2018-06-05T07:41:02.239Z,5060
2018-06-05T07:42:02.037Z,5004
2018-06-05T07:43:17.200Z,5112
2018-06-05T07:44:02.577Z,5172
2018-06-05T07:45:17.279Z,5208
2018-06-05T07:46:02.634Z,5188
2018-06-05T07:47:02.428Z,5164
2018-06-05T07:48:17.325Z,5268
2018-06-05T07:49:02.472Z,5480
2018-06-05T07:50:03.003Z,5888
2018-06-05T07:51:02.768Z,6304
2018-06-05T07:52:02.793Z,6640
2018-06-05T07:53:02.785Z,6940
2018-06-05T07:54:02.821Z,7336
2018-06-05T07:55:02.866Z,7748
2018-06-05T07:56:02.875Z,8040
2018-06-05T07:57:02.674Z,8228
2018-06-05T07:58:02.650Z,8428
2018-06-05T08:00:02.975Z,9384
2018-06-05T08:01:02.753Z,10008
2018-06-05T08:02:02.763Z,10344
2018-06-05T08:03:17.461Z,10720
2018-06-05T08:04:03.102Z,11128
2018-06-05T08:05:03.087Z,11680
2018-06-05T08:06:03.148Z,12020
2018-06-05T08:07:02.875Z,11972
2018-06-05T08:08:17.842Z,11400
2018-06-05T08:09:17.859Z,11224
2018-06-05T08:10:03.238Z,11296
2018-06-05T08:11:03.014Z,11352
2018-06-05T08:12:03.110Z,11132
2018-06-05T08:13:02.789Z,10788
2018-06-05T08:14:03.356Z,10660
2018-06-05T08:15:18.028Z,10832
2018-06-05T08:16:03.130Z,11020
2018-06-05T08:17:03.429Z,11284
2018-06-05T08:18:03.430Z,11436
2018-06-05T08:19:18.112Z,11504
2018-06-05T08:20:03.489Z,11560
2018-06-05T08:21:03.532Z,11660
2018-06-05T08:22:03.252Z,12088
2018-06-05T08:23:03.570Z,12868
2018-06-05T08:24:17.960Z,13708
2018-06-05T08:25:03.616Z,13800
2018-06-05T08:26:03.608Z,13496
2018-06-05T08:27:03.416Z,13548
2018-06-05T08:28:18.354Z,13952
2018-06-05T08:29:03.704Z,13316
2018-06-05T08:30:18.400Z,12572
2018-06-05T08:31:18.403Z,12516
2018-06-05T08:32:03.767Z,12636
2018-06-05T08:33:03.820Z,13692
2018-06-05T08:34:03.850Z,14368
2018-06-05T08:35:18.537Z,15420
2018-06-05T08:36:03.863Z,15144
2018-06-05T08:37:03.669Z,15364
2018-06-05T08:38:04.165Z,13664
2018-06-05T08:39:03.960Z,12460
2018-06-05T08:40:03.986Z,11680
2018-06-05T08:41:04.043Z,11468
2018-06-05T08:42:04.079Z,11224
2018-06-05T08:43:04.075Z,11300
2018-06-05T08:44:03.843Z,11420
2018-06-05T08:45:03.877Z,11204
2018-06-05T08:46:04.124Z,10792
2018-06-05T08:47:18.843Z,10572
2018-06-05T08:48:04.176Z,10520
2018-06-05T08:49:03.969Z,10436
2018-06-05T08:51:18.930Z,11412
2018-06-05T08:52:04.062Z,11676
2018-06-05T08:53:04.306Z,11748
2018-06-05T08:54:04.109Z,11788
2018-06-05T08:55:04.354Z,11676
2018-06-05T08:56:18.786Z,10688
2018-06-05T08:57:04.433Z,10460
2018-06-05T08:58:04.443Z,10656
2018-06-05T08:59:04.251Z,11240
2018-06-05T09:00:04.476Z,12052
2018-06-05T09:01:19.202Z,12344
2018-06-05T09:03:04.567Z,11120
2018-06-05T09:04:19.284Z,11644
2018-06-05T09:05:04.638Z,11840
2018-06-05T09:06:04.693Z,11844
2018-06-05T09:07:33.995Z,11344
2018-06-05T09:08:04.455Z,11320
2018-06-05T09:09:19.375Z,11656
2018-06-05T09:10:04.488Z,11964
2018-06-05T09:11:04.935Z,12608
2018-06-05T09:12:04.596Z,13176
2018-06-05T09:13:04.570Z,13780
2018-06-05T09:14:04.627Z,14396
2018-06-05T09:15:19.539Z,14924
2018-06-05T09:16:04.949Z,14828
2018-06-05T09:17:05.051Z,14264
2018-06-05T09:18:19.375Z,13476
2018-06-05T09:19:05.035Z,13024
2018-06-05T09:20:04.747Z,12292
2018-06-05T09:21:05.065Z,11712
2018-06-05T09:22:05.132Z,11472
2018-06-05T09:23:19.822Z,11888
2018-06-05T09:24:05.128Z,12492
2018-06-05T09:25:05.225Z,13256
2018-06-05T09:26:04.646Z,13720
2018-06-05T09:27:05.211Z,14032
2018-06-05T09:28:19.939Z,14060
2018-06-05T09:29:05.517Z,13728
2018-06-05T09:30:05.008Z,13028
2018-06-05T09:31:05.071Z,12132
2018-06-05T09:32:19.781Z,11600
2018-06-05T09:33:05.122Z,11692
2018-06-05T09:34:20.125Z,12352
2018-06-05T09:35:05.424Z,12720
2018-06-05T09:37:05.501Z,12748
2018-06-05T09:38:20.163Z,13608
2018-06-05T09:39:05.300Z,13840
2018-06-05T09:40:05.549Z,13788
2018-06-05T09:41:05.329Z,13672
2018-06-05T09:42:05.684Z,13540
2018-06-05T09:43:05.646Z,13252
2018-06-05T09:44:05.397Z,13356
2018-06-05T09:45:05.441Z,14064
2018-06-05T09:46:20.342Z,14816
2018-06-05T09:47:05.848Z,14988
2018-06-05T09:48:05.516Z,14940
2018-06-05T09:49:05.830Z,14988
2018-06-05T09:50:05.315Z,15144
2018-06-05T09:51:05.819Z,14792
2018-06-05T09:52:05.991Z,14476
2018-06-05T09:53:05.607Z,14464
2018-06-05T09:54:05.671Z,14296
2018-06-05T09:55:05.665Z,13968
2018-06-05T09:56:20.644Z,13440
2018-06-05T09:57:05.751Z,13256
2018-06-05T09:58:06.553Z,13416
2018-06-05T09:59:05.798Z,13640
2018-06-05T10:00:05.541Z,13976
2018-06-05T10:01:05.848Z,14228
2018-06-05T10:02:05.845Z,13748
2018-06-05T10:03:05.653Z,12872
2018-06-05T10:05:06.227Z,11240
2018-06-05T10:06:20.888Z,10508
2018-06-05T10:07:06.008Z,10092
2018-06-05T10:08:06.009Z,9648
2018-06-05T10:09:06.415Z,9564
2018-06-05T10:10:21.080Z,9420
2018-06-05T10:11:20.801Z,9024
2018-06-05T10:12:05.877Z,8824
2018-06-05T10:13:21.082Z,8864
2018-06-05T10:14:06.556Z,8944
2018-06-05T10:15:06.196Z,8988
2018-06-05T10:16:21.178Z,9124
2018-06-05T10:17:06.561Z,9324
2018-06-05T10:18:06.287Z,9808
2018-06-05T10:19:06.592Z,10280
2018-06-05T10:20:06.625Z,10504
2018-06-05T10:21:06.118Z,10476
2018-06-05T10:22:06.389Z,10504
2018-06-05T10:23:06.475Z,10540
2018-06-05T10:24:06.692Z,10728
2018-06-05T10:26:36.110Z,12088
2018-06-05T10:27:06.268Z,12444
2018-06-05T10:28:06.571Z,12732
2018-06-05T10:29:06.614Z,12444
2018-06-05T10:30:06.606Z,12444
2018-06-05T10:31:06.610Z,11220
2018-06-05T10:32:06.400Z,10756
2018-06-05T10:33:06.916Z,10812
2018-06-05T10:34:07.044Z,11080
2018-06-05T10:35:21.637Z,10976
2018-06-05T10:36:06.775Z,10836
2018-06-05T10:37:21.433Z,10676
2018-06-05T10:38:06.831Z,10700
2018-06-05T10:39:06.843Z,10600
2018-06-05T10:40:06.680Z,10464
2018-06-05T10:42:21.831Z,10080
2018-06-05T10:43:07.232Z,9832
2018-06-05T10:45:07.026Z,9348
2018-06-05T10:46:06.495Z,9300
2018-06-05T10:47:21.972Z,9620
2018-06-05T10:48:07.067Z,9672
2018-06-05T10:49:07.083Z,9432
2018-06-05T10:50:07.143Z,9196
2018-06-05T10:51:07.408Z,9204
2018-06-05T10:52:07.470Z,9400
2018-06-05T10:53:07.194Z,9368
2018-06-05T10:54:07.561Z,9160
2018-06-05T10:55:07.287Z,9036
2018-06-05T10:56:07.551Z,8892
2018-06-05T10:57:07.042Z,8768
2018-06-05T10:58:21.748Z,8640
2018-06-05T10:59:07.670Z,8600
2018-06-05T11:00:07.639Z,8488
2018-06-05T11:01:07.421Z,8448
2018-06-05T11:02:07.713Z,8512
2018-06-05T11:03:07.457Z,8616
2018-06-05T11:04:07.777Z,8704
2018-06-05T11:05:07.775Z,8796
2018-06-05T11:07:07.899Z,9168
2018-06-05T11:08:07.874Z,9428
2018-06-05T11:09:07.911Z,9592
2018-06-05T11:10:07.641Z,10096
2018-06-05T11:11:07.680Z,10648
2018-06-05T11:12:22.350Z,11012
2018-06-05T11:13:22.648Z,11464
2018-06-05T11:14:07.487Z,12156
2018-06-05T11:15:08.118Z,13240
2018-06-05T11:16:07.786Z,14264
2018-06-05T11:17:08.134Z,14860
2018-06-05T11:19:07.923Z,17056
2018-06-05T11:21:22.862Z,16660
2018-06-05T11:22:07.973Z,15188
2018-06-05T11:23:08.254Z,13696
2018-06-05T11:24:08.357Z,11396
2018-06-05T11:25:08.341Z,10148
2018-06-05T11:26:08.094Z,9948
2018-06-05T11:28:08.179Z,11896
2018-06-05T11:29:08.395Z,11736
2018-06-05T11:30:08.726Z,11912
2018-06-05T11:31:08.215Z,11864
2018-06-05T11:32:08.483Z,12632
2018-06-05T11:33:22.901Z,13648
2018-06-05T11:34:08.612Z,14264
2018-06-05T11:36:08.633Z,16324
2018-06-05T11:37:08.658Z,16108
2018-06-05T11:38:08.136Z,16040
2018-06-05T11:39:08.512Z,14872
2018-06-05T11:40:08.436Z,15644
2018-06-05T11:41:23.409Z,17056
2018-06-05T11:42:08.748Z,16380
2018-06-05T11:43:08.821Z,16832
2018-06-05T11:45:23.494Z,16224
2018-06-05T11:46:08.641Z,14684
2018-06-05T11:47:23.327Z,14028
2018-06-05T11:48:08.935Z,14012
2018-06-05T11:49:08.696Z,14608
2018-06-05T11:50:08.745Z,13208
2018-06-05T11:51:08.772Z,11716
2018-06-05T11:52:09.040Z,11452
2018-06-05T11:53:09.061Z,10944
2018-06-05T11:54:09.547Z,12416
2018-06-05T11:55:23.534Z,12408
2018-06-05T11:56:23.796Z,12292
2018-06-05T11:57:23.588Z,12388
2018-06-05T11:58:08.931Z,12332
2018-06-05T11:59:08.979Z,11800
2018-06-05T12:00:08.490Z,11504
2018-06-05T12:01:38.643Z,11192
2018-06-05T12:02:23.706Z,11000
2018-06-05T12:03:09.092Z,10984
2018-06-05T12:04:08.834Z,10720
2018-06-05T12:06:09.184Z,9528
2018-06-05T12:07:24.194Z,9236
2018-06-05T12:09:09.513Z,8868
2018-06-05T12:10:09.027Z,8752
2018-06-05T12:11:23.951Z,8772
2018-06-05T12:12:09.311Z,8776
2018-06-05T12:14:09.371Z,8692
2018-06-05T12:15:09.431Z,9176
2018-06-05T12:16:09.703Z,9980
2018-06-05T12:17:24.384Z,10116
2018-06-05T12:18:24.412Z,11232
2018-06-05T12:20:09.562Z,11464
2018-06-05T12:21:09.555Z,10844
2018-06-05T12:22:09.625Z,10516
2018-06-05T12:23:09.382Z,11624
2018-06-05T12:24:09.933Z,11780
2018-06-05T12:25:09.413Z,10804
2018-06-05T12:26:09.736Z,11044
2018-06-05T12:27:24.648Z,11904
2018-06-05T12:28:24.704Z,13272
2018-06-05T12:29:09.791Z,12676
2018-06-05T12:30:09.317Z,11992
2018-06-05T12:31:09.649Z,11580
2018-06-05T12:32:09.642Z,11092
2018-06-05T12:33:24.844Z,10492
2018-06-05T12:34:10.175Z,10228
2018-06-05T12:35:09.980Z,10108
2018-06-05T12:36:09.974Z,10496
2018-06-05T12:37:10.319Z,9644
2018-06-05T12:38:10.315Z,9492
2018-06-05T12:39:10.457Z,8524
2018-06-05T12:41:10.455Z,8036
2018-06-05T12:42:10.176Z,7724
2018-06-05T12:44:10.505Z,7624
2018-06-05T12:45:09.974Z,7536
2018-06-05T12:46:10.295Z,9260
2018-06-05T12:47:10.295Z,7564
2018-06-05T12:48:25.256Z,7608
2018-06-05T12:49:10.594Z,7668
2018-06-05T12:50:10.368Z,7676
2018-06-05T12:51:10.433Z,7496
2018-06-05T12:52:10.718Z,9880
2018-06-05T12:54:10.777Z,9680
2018-06-05T12:55:10.510Z,9528
2018-06-05T12:56:10.572Z,9732
2018-06-05T12:57:10.845Z,9888
2018-06-05T12:58:10.766Z,9920
2018-06-05T12:59:10.352Z,10256
2018-06-05T13:00:25.570Z,10532
2018-06-05T13:01:10.700Z,10684
2018-06-05T13:02:10.705Z,10636
2018-06-05T13:03:25.731Z,10500
2018-06-05T13:04:11.082Z,10608
2018-06-05T13:05:11.129Z,10488
2018-06-05T13:06:10.545Z,9892
2018-06-05T13:07:11.113Z,8864
2018-06-05T13:08:10.609Z,8088
2018-06-05T13:09:11.185Z,7972
2018-06-05T13:10:11.230Z,8160
2018-06-05T13:11:10.948Z,9296
2018-06-05T13:12:11.124Z,11984
2018-06-05T13:13:11.261Z,12448
2018-06-05T13:14:11.074Z,12764
2018-06-05T13:15:11.062Z,12692
2018-06-05T13:16:11.134Z,12792
2018-06-05T13:17:11.385Z,12752
2018-06-05T13:18:11.180Z,11480
2018-06-05T13:19:10.912Z,12836
2018-06-05T13:20:25.877Z,13136
2018-06-05T13:21:10.988Z,13192
2018-06-05T13:22:11.273Z,12888
2018-06-05T13:23:11.446Z,12336
2018-06-05T13:24:11.344Z,12156
2018-06-05T13:25:11.090Z,11884
2018-06-05T13:26:11.666Z,11700
2018-06-05T13:28:11.715Z,11020
2018-06-05T13:30:11.742Z,8580
2018-06-05T13:31:11.275Z,8824
2018-06-05T13:32:26.512Z,8908
2018-06-05T13:33:11.598Z,8852
2018-06-05T13:34:11.603Z,8784
2018-06-05T13:35:11.920Z,8708
2018-06-05T13:36:26.561Z,8440
2018-06-05T13:37:11.953Z,8316
2018-06-05T13:38:11.718Z,8352
2018-06-05T13:40:12.060Z,8560
2018-06-05T13:41:12.047Z,8808
2018-06-05T13:42:11.572Z,9304
2018-06-05T13:43:11.582Z,10892
2018-06-05T13:44:26.652Z,8708
2018-06-05T13:45:11.633Z,8544
2018-06-05T13:46:26.610Z,8436
2018-06-05T13:47:26.872Z,8372
2018-06-05T13:48:12.273Z,8480
2018-06-05T13:49:12.274Z,8804
2018-06-05T13:51:12.381Z,10476
2018-06-05T13:52:27.235Z,9096
2018-06-05T13:53:27.030Z,9568
2018-06-05T13:54:27.058Z,12404
2018-06-05T13:55:12.469Z,12272
2018-06-05T13:56:12.205Z,12584
2018-06-05T13:57:12.528Z,12708
2018-06-05T13:58:27.196Z,12688
2018-06-05T13:59:12.294Z,12916
2018-06-05T14:00:12.526Z,13008
2018-06-05T14:01:12.329Z,12884
2018-06-05T14:02:12.396Z,12252
2018-06-05T14:03:26.793Z,11720
2018-06-05T14:04:12.457Z,10020
2018-06-05T14:05:12.468Z,9820
2018-06-05T14:06:12.762Z,9804
2018-06-05T14:07:12.494Z,9768
2018-06-05T14:08:27.028Z,9552
2018-06-05T14:09:13.264Z,9468
2018-06-05T14:10:27.247Z,9340
2018-06-05T14:11:12.911Z,9272
2018-06-05T14:12:27.311Z,9356
2018-06-05T14:13:12.952Z,9360
2018-06-05T14:14:12.685Z,9448
2018-06-05T14:15:13.025Z,9872
2018-06-05T14:16:27.668Z,9980
2018-06-05T14:17:13.070Z,9584
2018-06-05T14:18:13.061Z,9712
2018-06-05T14:19:27.524Z,9128
2018-06-05T14:20:13.125Z,9176
2018-06-05T14:21:13.192Z,9632
2018-06-05T14:22:13.194Z,8800
2018-06-05T14:23:27.612Z,8924
2018-06-05T14:24:12.978Z,9504
2018-06-05T14:25:13.272Z,9080
2018-06-05T14:26:13.320Z,8620
2018-06-05T14:27:13.323Z,7896
2018-06-05T14:28:13.378Z,7228
2018-06-05T14:29:13.103Z,6700
2018-06-05T14:30:13.168Z,6396
2018-06-05T14:31:13.421Z,6228